Time;durP1;ratioP1;P1;durP2;ratioP2;P2;SDS_P1;SDS_P2;PMS_P1;PMS_P2;Temp;Humidity;BMP_temperature;BMP_pressure;BME280_temperature;BME280_humidity;BME280_pressure;Samples;Min_cycle;Max_cycle;Signal;HPM_P1;HPM_P2
2021/08/28 00:02:07;;;;;;;2.20;0.88;;;16.60;90.90;;;;;;5092901;28;20027;-84
2021/08/28 00:04:34;;;;;;;2.17;1.13;;;16.60;91.00;;;;;;5096313;28;20028;-83
2021/08/28 00:07:00;;;;;;;2.25;0.80;;;16.60;91.00;;;;;;5088716;28;20064;-84
2021/08/28 00:09:26;;;;;;;2.28;0.70;;;16.60;91.00;;;;;;5096595;28;20034;-86
2021/08/28 00:11:51;;;;;;;1.23;0.90;;;16.60;91.10;;;;;;5106644;28;20020;-87
2021/08/28 00:14:17;;;;;;;2.13;1.00;;;16.60;91.10;;;;;;5108653;28;20036;-88
2021/08/28 00:16:43;;;;;;;2.78;1.02;;;16.60;91.10;;;;;;5078449;28;20052;-88
2021/08/28 00:19:08;;;;;;;1.83;0.98;;;16.60;91.10;;;;;;5075872;28;20039;-87
2021/08/28 00:21:34;;;;;;;2.42;1.00;;;16.60;91.20;;;;;;5093395;28;20024;-89
2021/08/28 00:24:01;;;;;;;2.67;1.00;;;16.50;91.30;;;;;;5095178;28;20400;-83
2021/08/28 00:26:28;;;;;;;3.40;1.00;;;16.50;91.30;;;;;;5079447;28;20071;-86
2021/08/28 00:28:54;;;;;;;1.65;1.00;;;16.50;91.30;;;;;;5093919;28;20036;-84
2021/08/28 00:31:19;;;;;;;0.75;0.70;;;16.50;91.30;;;;;;5095627;28;20096;-84
2021/08/28 00:33:45;;;;;;;1.73;0.80;;;16.50;91.20;;;;;;5094653;28;20081;-85
2021/08/28 00:36:11;;;;;;;2.70;0.90;;;16.50;91.30;;;;;;5083175;28;20614;-83
2021/08/28 00:38:36;;;;;;;2.20;0.70;;;16.50;91.20;;;;;;5085863;28;20024;-83
2021/08/28 00:41:02;;;;;;;0.88;0.70;;;16.50;91.30;;;;;;5090314;28;20395;-85
2021/08/28 00:43:28;;;;;;;1.98;0.98;;;16.50;91.40;;;;;;5089557;28;20021;-81
2021/08/28 00:45:54;;;;;;;1.20;0.80;;;16.40;91.50;;;;;;5087660;28;20028;-83
2021/08/28 00:48:19;;;;;;;2.67;1.00;;;16.40;91.60;;;;;;5083586;28;20119;-82
2021/08/28 00:50:45;;;;;;;1.90;0.88;;;16.40;91.60;;;;;;5082743;28;20063;-84
2021/08/28 00:53:14;;;;;;;1.20;0.90;;;16.50;91.50;;;;;;5080573;28;20556;-83
2021/08/28 00:55:47;;;;;;;2.75;1.00;;;16.50;91.50;;;;;;5085238;28;20483;-85
2021/08/28 00:58:13;;;;;;;2.65;1.10;;;16.50;91.50;;;;;;5094203;28;20048;-85
2021/08/28 01:00:55;;;;;;;1.80;1.00;;;16.50;91.50;;;;;;5078118;28;20029;-86
2021/08/28 01:03:27;;;;;;;4.35;0.90;;;16.60;91.50;;;;;;5076518;28;20486;-87
2021/08/28 01:05:55;;;;;;;3.75;1.00;;;16.60;91.60;;;;;;5083031;28;20128;-88
2021/08/28 01:08:35;;;;;;;1.65;0.85;;;16.50;91.60;;;;;;5091757;28;20035;-86
2021/08/28 01:11:30;;;;;;;2.58;0.93;;;16.60;91.60;;;;;;5082816;28;20043;-88
2021/08/28 01:14:09;;;;;;;1.85;1.20;;;16.60;91.60;;;;;;5075481;28;20044;-83
2021/08/28 01:16:37;;;;;;;1.95;1.20;;;16.60;91.50;;;;;;5079409;28;20052;-85
2021/08/28 01:19:03;;;;;;;3.67;1.10;;;16.60;91.50;;;;;;5070286;28;20120;-84
2021/08/28 01:21:35;;;;;;;1.73;0.98;;;16.50;91.50;;;;;;5057283;28;20443;-85
2021/08/28 01:24:06;;;;;;;1.50;0.93;;;16.60;91.50;;;;;;5065941;28;20465;-83
2021/08/28 01:26:46;;;;;;;3.65;1.10;;;16.50;91.40;;;;;;5094628;28;20111;-86
2021/08/28 01:29:16;;;;;;;1.40;1.17;;;16.50;91.50;;;;;;5075277;28;20506;-88
2021/08/28 01:31:43;;;;;;;2.28;1.00;;;16.60;91.40;;;;;;5076556;28;20024;-89
2021/08/28 01:34:10;;;;;;;2.20;1.30;;;16.60;91.40;;;;;;5082405;28;20062;-86
2021/08/28 01:36:36;;;;;;;2.33;1.08;;;16.60;91.40;;;;;;5057105;28;20028;-84
2021/08/28 01:39:02;;;;;;;1.77;1.13;;;16.60;91.40;;;;;;5063464;28;20074;-83
2021/08/28 01:41:28;;;;;;;2.95;1.38;;;16.60;91.40;;;;;;5059383;28;20488;-85
2021/08/28 01:43:55;;;;;;;2.15;1.48;;;16.60;91.40;;;;;;5075257;28;20017;-87
2021/08/28 01:46:23;;;;;;;4.03;1.40;;;16.50;91.50;;;;;;5076217;28;20021;-86
2021/08/28 01:48:48;;;;;;;2.75;1.38;;;16.50;91.60;;;;;;5057681;28;20067;-89
2021/08/28 01:51:15;;;;;;;3.22;1.40;;;16.50;91.50;;;;;;5067196;28;20063;-85
2021/08/28 01:53:41;;;;;;;3.33;1.52;;;16.50;91.50;;;;;;5093326;28;20029;-85
2021/08/28 01:56:07;;;;;;;2.50;1.70;;;16.50;91.60;;;;;;5067195;28;20154;-86
2021/08/28 01:58:33;;;;;;;2.67;1.20;;;16.50;91.60;;;;;;5076493;28;20032;-88
2021/08/28 02:00:59;;;;;;;3.05;1.60;;;16.50;91.70;;;;;;5070082;28;20028;-89
2021/08/28 02:03:24;;;;;;;6.55;1.55;;;16.40;91.70;;;;;;5076080;28;20028;-86
2021/08/28 02:06:00;;;;;;;2.35;1.55;;;16.50;91.70;;;;;;5075005;28;20031;-89
2021/08/28 02:09:00;;;;;;;3.00;1.50;;;16.50;91.70;;;;;;5070583;28;20472;-89
2021/08/28 02:11:38;;;;;;;2.95;1.73;;;16.50;91.70;;;;;;5010303;28;20043;-88
2021/08/28 02:14:14;;;;;;;3.40;1.83;;;16.50;91.70;;;;;;5083142;28;20472;-88
2021/08/28 02:16:42;;;;;;;3.55;1.90;;;16.50;91.60;;;;;;5072364;28;20055;-87
2021/08/28 02:19:20;;;;;;;4.53;2.20;;;16.50;91.60;;;;;;5090854;28;20028;-88
2021/08/28 02:21:52;;;;;;;2.47;1.73;;;16.50;91.60;;;;;;5114605;28;20083;-86
2021/08/28 02:24:23;;;;;;;3.13;1.85;;;16.50;91.60;;;;;;5076216;28;20077;-86
2021/08/28 02:27:19;;;;;;;2.83;1.80;;;16.50;91.70;;;;;;5088158;28;20036;-86
2021/08/28 02:30:03;;;;;;;3.38;2.10;;;16.50;91.80;;;;;;5079303;28;20059;-85
2021/08/28 02:32:30;;;;;;;4.85;1.73;;;16.50;91.80;;;;;;5096251;28;20456;-86
2021/08/28 02:34:57;;;;;;;3.78;1.88;;;16.50;91.80;;;;;;5095207;28;20460;-86
2021/08/28 02:37:23;;;;;;;2.42;2.03;;;16.50;91.80;;;;;;5103598;28;20036;-87
2021/08/28 02:39:50;;;;;;;6.22;2.13;;;16.50;91.90;;;;;;5075909;28;20035;-88
2021/08/28 02:42:17;;;;;;;2.60;2.05;;;16.50;91.90;;;;;;5076413;28;20024;-88
2021/08/28 02:44:44;;;;;;;3.35;1.85;;;16.50;91.90;;;;;;5093750;28;20024;-88
2021/08/28 02:47:11;;;;;;;3.10;2.00;;;16.40;92.00;;;;;;5089988;28;20102;-89
2021/08/28 02:49:39;;;;;;;5.47;2.10;;;16.40;91.90;;;;;;5078232;28;20028;-89
2021/08/28 02:52:06;;;;;;;3.72;2.05;;;16.40;91.90;;;;;;5095057;28;20023;-85
2021/08/28 02:54:32;;;;;;;3.70;1.85;;;16.40;91.90;;;;;;5113464;28;20110;-88
2021/08/28 02:56:59;;;;;;;6.18;2.30;;;16.40;92.00;;;;;;5091237;28;20107;-89
2021/08/28 02:59:26;;;;;;;3.38;2.30;;;16.40;92.00;;;;;;5089674;28;20024;-87
2021/08/28 03:01:52;;;;;;;3.85;2.05;;;16.40;92.00;;;;;;5080216;28;20024;-86
2021/08/28 03:04:22;;;;;;;3.60;2.10;;;16.40;92.00;;;;;;5094893;28;20536;-87
2021/08/28 03:06:48;;;;;;;2.85;2.05;;;16.40;92.00;;;;;;5113061;28;20039;-87
2021/08/28 03:09:16;;;;;;;2.88;2.03;;;16.50;91.90;;;;;;5106346;28;20043;-86
2021/08/28 03:11:42;;;;;;;2.17;1.80;;;16.50;91.80;;;;;;5090310;28;20101;-86
2021/08/28 03:14:07;;;;;;;3.75;2.40;;;16.50;91.70;;;;;;5104654;28;20406;-87
2021/08/28 03:16:36;;;;;;;5.20;2.65;;;16.50;91.80;;;;;;5094758;28;20079;-87
2021/08/28 03:19:02;;;;;;;4.90;2.13;;;16.40;91.90;;;;;;5078377;28;20534;-85
2021/08/28 03:21:31;;;;;;;2.95;1.80;;;16.50;92.10;;;;;;5078586;28;20107;-85
2021/08/28 03:23:58;;;;;;;4.78;2.30;;;16.50;92.30;;;;;;5092295;28;20035;-88
2021/08/28 03:26:24;;;;;;;2.30;2.10;;;16.50;92.30;;;;;;5078781;28;20059;-87
2021/08/28 03:28:52;;;;;;;2.58;1.80;;;16.60;92.30;;;;;;5082738;28;20115;-87
2021/08/28 03:31:19;;;;;;;2.78;1.77;;;16.50;92.30;;;;;;5078275;28;20468;-88
2021/08/28 03:33:47;;;;;;;3.40;2.03;;;16.50;92.40;;;;;;5106777;28;20062;-88
2021/08/28 03:36:15;;;;;;;3.10;1.90;;;16.50;92.40;;;;;;5092897;28;20115;-88
2021/08/28 03:38:41;;;;;;;2.97;1.73;;;16.50;92.50;;;;;;5080298;28;20441;-88
2021/08/28 03:41:08;;;;;;;3.47;1.92;;;16.50;92.50;;;;;;5078670;28;20062;-86
2021/08/28 03:43:35;;;;;;;5.65;2.30;;;16.50;92.40;;;;;;5096245;28;20032;-87
2021/08/28 03:46:01;;;;;;;5.10;2.55;;;16.50;92.40;;;;;;5078187;28;20080;-85
2021/08/28 03:48:28;;;;;;;3.42;2.10;;;16.50;92.50;;;;;;5099550;28;20046;-85
2021/08/28 03:50:55;;;;;;;3.05;2.30;;;16.40;92.70;;;;;;5077816;28;20110;-87
2021/08/28 03:53:21;;;;;;;7.03;2.45;;;16.40;92.80;;;;;;5091153;28;20028;-88
2021/08/28 03:55:46;;;;;;;6.65;2.40;;;16.40;92.80;;;;;;5077981;28;20073;-88
2021/08/28 03:58:12;;;;;;;4.05;2.50;;;16.40;92.70;;;;;;5096002;28;20059;-87
2021/08/28 04:00:37;;;;;;;5.70;3.20;;;16.30;92.70;;;;;;5078673;28;20028;-87
2021/08/28 04:03:03;;;;;;;2.72;2.28;;;16.30;92.70;;;;;;5096759;28;20103;-87
2021/08/28 04:05:29;;;;;;;3.50;2.70;;;16.30;92.60;;;;;;5078708;28;20111;-88
2021/08/28 04:07:54;;;;;;;3.95;2.38;;;16.30;92.60;;;;;;5097737;28;20046;-87
2021/08/28 04:10:20;;;;;;;3.63;2.30;;;16.30;92.70;;;;;;5082570;28;20032;-81
2021/08/28 04:12:45;;;;;;;4.47;2.35;;;16.30;93.00;;;;;;5085688;28;20035;-82
2021/08/28 04:15:11;;;;;;;3.35;2.45;;;16.30;92.60;;;;;;5077946;28;20052;-90
2021/08/28 04:17:37;;;;;;;3.70;2.53;;;16.30;92.60;;;;;;5103648;28;20061;-87
2021/08/28 04:20:04;;;;;;;6.60;2.35;;;16.30;92.60;;;;;;5116184;28;20448;-87
2021/08/28 04:22:30;;;;;;;4.65;2.35;;;16.30;92.60;;;;;;5098458;28;20071;-89
2021/08/28 04:24:56;;;;;;;4.47;2.35;;;16.30;92.70;;;;;;5096617;28;20023;-86
2021/08/28 04:27:21;;;;;;;2.75;2.17;;;16.30;92.80;;;;;;5083237;28;20092;-87
2021/08/28 04:29:47;;;;;;;5.88;2.50;;;16.20;92.90;;;;;;5078164;28;20032;-86
2021/08/28 04:32:13;;;;;;;4.20;2.17;;;16.10;92.90;;;;;;5087749;28;20511;-84
2021/08/28 04:34:38;;;;;;;3.22;2.20;;;16.10;93.10;;;;;;5116137;28;20024;-86
2021/08/28 04:37:04;;;;;;;5.40;2.28;;;16.10;93.20;;;;;;5089408;28;20024;-86
2021/08/28 04:39:30;;;;;;;6.13;2.47;;;15.90;93.40;;;;;;5078170;28;20448;-85
2021/08/28 04:41:55;;;;;;;5.30;2.40;;;15.90;93.40;;;;;;5079861;28;20461;-85
2021/08/28 04:44:21;;;;;;;3.95;2.45;;;16.00;93.40;;;;;;5077921;28;20027;-85
2021/08/28 04:46:47;;;;;;;4.55;2.40;;;16.00;93.40;;;;;;5084109;28;20088;-89
2021/08/28 04:49:13;;;;;;;3.03;2.42;;;15.90;93.40;;;;;;5077479;28;20054;-86
2021/08/28 04:51:38;;;;;;;5.55;2.53;;;15.90;93.40;;;;;;5085477;28;20028;-86
2021/08/28 04:54:04;;;;;;;5.57;2.58;;;15.90;93.40;;;;;;5077190;28;20063;-86
2021/08/28 04:56:30;;;;;;;4.13;2.67;;;15.90;93.50;;;;;;5076927;28;20413;-84
2021/08/28 04:58:56;;;;;;;7.45;2.95;;;15.80;93.60;;;;;;5110129;28;20031;-85
2021/08/28 05:01:21;;;;;;;5.13;2.50;;;15.80;93.60;;;;;;5091553;28;20028;-84
2021/08/28 05:03:47;;;;;;;3.75;2.75;;;15.70;93.80;;;;;;5087805;28;20032;-85
2021/08/28 05:06:13;;;;;;;6.43;2.63;;;15.80;93.80;;;;;;5081520;28;20036;-87
2021/08/28 05:08:38;;;;;;;3.80;2.50;;;15.90;93.90;;;;;;5092064;28;20031;-86
2021/08/28 05:11:04;;;;;;;3.67;2.60;;;15.90;93.80;;;;;;5109383;28;20084;-87
2021/08/28 05:13:30;;;;;;;4.55;2.20;;;16.00;93.90;;;;;;5096451;28;20027;-87
2021/08/28 05:15:56;;;;;;;4.00;2.80;;;16.00;93.70;;;;;;5097134;28;20062;-87
2021/08/28 05:18:21;;;;;;;6.07;2.83;;;16.10;93.50;;;;;;5100234;28;20504;-85
2021/08/28 05:20:47;;;;;;;5.22;2.80;;;16.10;93.60;;;;;;5093365;28;20088;-86
2021/08/28 05:23:13;;;;;;;4.63;3.13;;;16.20;93.40;;;;;;5097984;28;20091;-87
2021/08/28 05:25:39;;;;;;;4.72;2.90;;;16.10;93.30;;;;;;5089284;28;20023;-86
2021/08/28 05:28:04;;;;;;;9.77;3.00;;;16.20;93.40;;;;;;5105940;28;20070;-87
2021/08/28 05:30:30;;;;;;;12.10;6.70;;;16.20;93.40;;;;;;5082268;28;20028;-86
2021/08/28 05:32:56;;;;;;;7.30;4.47;;;16.20;93.40;;;;;;5092694;28;20016;-87
2021/08/28 05:35:21;;;;;;;4.50;3.53;;;16.10;93.40;;;;;;5081508;28;20016;-88
2021/08/28 05:37:47;;;;;;;5.00;3.20;;;16.10;93.40;;;;;;5087139;28;20028;-86
2021/08/28 05:40:13;;;;;;;3.75;2.80;;;16.20;93.30;;;;;;5075706;28;20452;-87
2021/08/28 05:42:40;;;;;;;4.30;2.67;;;16.20;93.20;;;;;;5092172;28;20378;-89
2021/08/28 05:45:06;;;;;;;4.22;2.63;;;16.20;93.30;;;;;;5097797;28;20368;-87
2021/08/28 05:47:32;;;;;;;5.45;3.38;;;16.20;93.50;;;;;;5096587;28;20035;-89
2021/08/28 05:49:57;;;;;;;4.45;2.60;;;16.30;93.10;;;;;;5096239;28;20456;-87
2021/08/28 05:52:23;;;;;;;4.35;2.95;;;16.30;93.30;;;;;;5082937;28;20089;-87
2021/08/28 05:54:49;;;;;;;4.18;2.45;;;16.30;93.20;;;;;;5110456;28;20047;-88
2021/08/28 05:57:14;;;;;;;5.55;2.92;;;16.30;93.00;;;;;;5098081;28;20467;-89
2021/08/28 05:59:40;;;;;;;5.43;2.90;;;16.30;93.00;;;;;;5088536;28;20024;-88
2021/08/28 06:02:06;;;;;;;5.45;2.60;;;16.30;93.00;;;;;;5087187;28;20028;-88
2021/08/28 06:04:32;;;;;;;5.22;2.88;;;16.30;93.10;;;;;;5096438;28;20050;-88
2021/08/28 06:06:57;;;;;;;3.13;2.40;;;16.30;93.10;;;;;;5078993;28;20028;-90
2021/08/28 06:09:23;;;;;;;4.75;3.03;;;16.30;93.00;;;;;;5108992;28;20020;-88
2021/08/28 06:11:49;;;;;;;4.45;2.70;;;16.30;93.00;;;;;;5103306;28;20050;-89
2021/08/28 06:14:14;;;;;;;4.43;2.60;;;16.30;93.10;;;;;;5113409;28;20500;-87
2021/08/28 06:16:40;;;;;;;4.93;2.78;;;16.40;93.10;;;;;;5097330;28;20040;-87
2021/08/28 06:19:05;;;;;;;4.97;3.08;;;16.40;92.90;;;;;;5094772;28;20020;-88
2021/08/28 06:21:33;;;;;;;6.38;3.00;;;16.50;92.90;;;;;;5107610;28;20448;-86
2021/08/28 06:23:59;;;;;;;4.57;2.95;;;16.50;92.90;;;;;;5085768;28;20019;-87
2021/08/28 06:26:25;;;;;;;6.75;3.03;;;16.60;92.80;;;;;;5082288;28;20028;-89
2021/08/28 06:28:50;;;;;;;5.55;3.15;;;16.70;92.90;;;;;;5092087;28;20031;-89
2021/08/28 06:31:16;;;;;;;4.90;3.13;;;16.70;92.70;;;;;;5098249;28;20456;-89
2021/08/28 06:33:42;;;;;;;4.72;3.00;;;16.70;92.70;;;;;;5087876;28;20020;-88
2021/08/28 06:36:07;;;;;;;5.57;3.03;;;16.70;92.60;;;;;;5086879;28;20031;-85
2021/08/28 06:38:33;;;;;;;6.03;4.25;;;16.70;92.50;;;;;;5080463;28;20032;-84
2021/08/28 06:41:02;;;;;;;6.50;4.00;;;16.80;92.70;;;;;;5091808;28;20024;-85
2021/08/28 06:43:28;;;;;;;6.05;3.95;;;16.80;92.70;;;;;;5081716;28;20023;-86
2021/08/28 06:45:54;;;;;;;4.97;3.83;;;16.90;92.40;;;;;;5085471;28;20077;-88
2021/08/28 06:48:20;;;;;;;6.72;3.72;;;16.80;92.40;;;;;;5089007;28;20027;-86
2021/08/28 06:50:47;;;;;;;6.32;4.13;;;16.90;92.40;;;;;;5098709;28;20110;-86
2021/08/28 06:53:13;;;;;;;5.65;3.83;;;16.90;92.30;;;;;;5079893;28;20088;-87
2021/08/28 06:55:38;;;;;;;5.35;3.60;;;16.90;92.30;;;;;;5092525;28;20442;-86
2021/08/28 06:58:04;;;;;;;5.50;3.85;;;16.90;92.20;;;;;;5087302;28;20122;-86
2021/08/28 07:00:30;;;;;;;4.20;3.40;;;17.00;92.00;;;;;;5079617;28;20020;-85
2021/08/28 07:02:55;;;;;;;6.38;3.47;;;17.10;92.10;;;;;;5097336;28;20452;-86
2021/08/28 07:05:21;;;;;;;5.32;3.92;;;17.10;92.10;;;;;;5112427;28;20444;-86
2021/08/28 07:07:48;;;;;;;6.65;3.92;;;17.10;92.10;;;;;;5088251;28;20019;-87
2021/08/28 07:10:14;;;;;;;6.60;3.90;;;17.10;91.90;;;;;;5086486;28;20162;-86
2021/08/28 07:12:40;;;;;;;5.07;3.63;;;17.20;91.90;;;;;;5113648;28;20047;-88
2021/08/28 07:15:06;;;;;;;6.75;3.70;;;17.20;91.80;;;;;;5099879;28;20016;-87
2021/08/28 07:17:32;;;;;;;5.97;3.67;;;17.30;91.70;;;;;;5091759;28;20050;-87
2021/08/28 07:19:57;;;;;;;5.50;3.70;;;17.30;91.60;;;;;;5088867;28;20106;-87
2021/08/28 07:22:23;;;;;;;5.32;3.80;;;17.20;91.70;;;;;;5085526;28;20111;-90
2021/08/28 07:24:49;;;;;;;6.63;3.40;;;17.10;91.80;;;;;;5096186;28;20111;-86
2021/08/28 07:27:16;;;;;;;5.72;3.70;;;17.10;92.00;;;;;;5094768;28;20048;-86
2021/08/28 07:29:41;;;;;;;5.50;4.10;;;17.00;92.00;;;;;;5087166;28;20092;-90
2021/08/28 07:32:08;;;;;;;5.90;4.15;;;17.10;91.90;;;;;;5105087;28;20437;-87
2021/08/28 07:34:36;;;;;;;6.75;4.25;;;17.00;91.90;;;;;;5094127;28;20404;-85
2021/08/28 07:37:04;;;;;;;5.57;3.78;;;17.10;91.90;;;;;;5081471;28;20058;-85
2021/08/28 07:39:29;;;;;;;6.07;4.03;;;17.10;91.80;;;;;;5075662;28;20020;-89
2021/08/28 07:41:57;;;;;;;6.10;4.05;;;17.30;91.70;;;;;;5088034;28;20020;-87
2021/08/28 07:44:23;;;;;;;6.18;4.20;;;17.40;91.40;;;;;;5084930;28;20026;-88
2021/08/28 07:46:49;;;;;;;5.82;3.90;;;17.50;91.30;;;;;;5095348;28;20027;-84
2021/08/28 07:49:15;;;;;;;5.82;3.97;;;17.50;91.20;;;;;;5100773;28;20035;-84
2021/08/28 07:51:41;;;;;;;7.65;4.10;;;17.40;91.20;;;;;;5090590;28;20019;-89
2021/08/28 07:54:07;;;;;;;6.35;3.92;;;17.50;91.20;;;;;;5107543;28;20023;-88
2021/08/28 07:56:33;;;;;;;4.68;3.80;;;17.40;91.10;;;;;;5116307;28;20455;-86
2021/08/28 07:58:58;;;;;;;6.70;4.22;;;17.40;91.30;;;;;;5081210;28;20016;-87
2021/08/28 08:01:24;;;;;;;6.53;3.88;;;17.40;91.90;;;;;;5092394;28;20518;-88
2021/08/28 08:03:50;;;;;;;5.70;4.50;;;17.40;91.90;;;;;;5087035;28;20024;-88
2021/08/28 08:06:15;;;;;;;6.70;4.60;;;17.20;91.30;;;;;;5085966;28;20020;-89
2021/08/28 08:08:41;;;;;;;6.13;4.22;;;17.10;91.40;;;;;;5112734;28;20440;-90
2021/08/28 08:11:07;;;;;;;8.18;4.25;;;17.10;91.30;;;;;;5081206;28;20042;-90
2021/08/28 08:13:33;;;;;;;5.63;3.40;;;17.00;91.40;;;;;;5091863;28;20020;-89
2021/08/28 08:15:58;;;;;;;3.33;2.83;;;17.20;91.30;;;;;;5087605;28;20051;-86
2021/08/28 08:18:24;;;;;;;5.57;2.95;;;17.40;91.00;;;;;;5084314;28;20071;-89
2021/08/28 08:20:50;;;;;;;4.72;2.72;;;17.60;90.90;;;;;;5094711;28;20471;-88
2021/08/28 08:23:16;;;;;;;4.18;2.72;;;17.80;90.30;;;;;;5099733;28;20030;-85
2021/08/28 08:25:41;;;;;;;4.22;3.00;;;18.00;89.20;;;;;;5098213;28;20043;-88
2021/08/28 08:28:07;;;;;;;5.63;2.90;;;18.10;88.80;;;;;;5097657;28;20032;-86
2021/08/28 08:30:33;;;;;;;3.97;2.90;;;18.10;88.90;;;;;;5082996;28;20024;-88
2021/08/28 08:32:59;;;;;;;4.65;3.25;;;18.10;89.10;;;;;;5112039;28;20027;-86
2021/08/28 08:35:24;;;;;;;6.00;2.95;;;18.10;89.30;;;;;;5083165;28;20024;-87
2021/08/28 08:37:52;;;;;;;4.80;2.80;;;18.00;89.40;;;;;;5090787;28;20133;-87
2021/08/28 08:40:19;;;;;;;5.47;3.20;;;17.90;89.40;;;;;;5110801;28;20020;-89
2021/08/28 08:42:47;;;;;;;5.13;3.15;;;17.90;89.60;;;;;;5081003;28;20024;-89
2021/08/28 08:45:13;;;;;;;4.88;2.80;;;17.90;89.50;;;;;;5093048;28;20056;-91
2021/08/28 08:47:39;;;;;;;4.43;3.08;;;17.90;89.60;;;;;;5084876;28;20363;-90
2021/08/28 08:50:06;;;;;;;4.90;3.42;;;17.80;89.50;;;;;;5086035;28;20020;-89
2021/08/28 08:52:32;;;;;;;4.43;3.08;;;17.80;89.70;;;;;;5083022;28;20020;-87
2021/08/28 08:54:58;;;;;;;5.40;3.75;;;17.80;90.00;;;;;;5094964;28;20034;-86
2021/08/28 08:57:24;;;;;;;4.82;3.35;;;17.80;89.90;;;;;;5091566;28;20028;-88
2021/08/28 08:59:49;;;;;;;6.22;3.75;;;17.80;90.10;;;;;;5085893;28;20468;-88
2021/08/28 09:02:15;;;;;;;6.75;3.80;;;17.80;90.30;;;;;;5084075;28;20024;-89
2021/08/28 09:04:41;;;;;;;4.50;3.42;;;17.90;90.20;;;;;;5093477;28;20015;-89
2021/08/28 09:07:12;;;;;;;6.25;3.25;;;17.90;90.60;;;;;;5097902;28;20019;-90
2021/08/28 09:09:38;;;;;;;6.32;3.75;;;18.00;90.80;;;;;;5089843;28;20030;-89
2021/08/28 09:12:08;;;;;;;5.20;3.80;;;17.90;90.60;;;;;;5087618;28;20519;-91
2021/08/28 09:14:34;;;;;;;6.57;3.65;;;17.90;90.70;;;;;;5099638;28;20085;-91
2021/08/28 09:17:13;;;;;;;6.43;3.60;;;17.90;90.80;;;;;;5089288;28;20048;-89
2021/08/28 09:19:40;;;;;;;5.72;3.10;;;17.80;90.80;;;;;;5080625;28;20027;-90
2021/08/28 09:22:27;;;;;;;4.60;2.60;;;17.80;90.90;;;;;;5082787;28;20095;-91
2021/08/28 09:24:56;;;;;;;3.70;2.80;;;17.80;91.30;;;;;;5090892;28;20529;-90
2021/08/28 09:27:41;;;;;;;3.40;2.75;;;17.50;91.90;;;;;;5089349;28;20039;-90
2021/08/28 09:30:35;;;;;;;5.75;2.80;;;17.40;92.30;;;;;;5084833;28;20055;-89
2021/08/28 09:33:09;;;;;;;3.00;2.40;;;17.30;92.60;;;;;;5075994;28;20021;-89
2021/08/28 09:35:42;;;;;;;4.10;2.50;;;17.30;92.40;;;;;;5086135;28;20111;-87
2021/08/28 09:38:10;;;;;;;3.50;2.50;;;17.30;92.70;;;;;;5084139;28;20456;-83
2021/08/28 09:40:41;;;;;;;4.97;2.80;;;17.20;92.90;;;;;;5078837;28;20038;-85
2021/08/28 09:43:12;;;;;;;3.92;2.80;;;17.00;93.20;;;;;;5089647;28;20023;-84
2021/08/28 09:45:38;;;;;;;4.70;2.90;;;17.00;93.20;;;;;;5080398;28;20024;-85
2021/08/28 09:48:09;;;;;;;3.60;2.95;;;16.90;93.90;;;;;;5082726;28;20515;-85
2021/08/28 09:50:41;;;;;;;3.67;2.58;;;16.80;94.20;;;;;;5088659;28;20461;-85
2021/08/28 09:53:12;;;;;;;5.60;2.70;;;16.80;94.50;;;;;;5084455;28;20027;-88
2021/08/28 09:55:39;;;;;;;4.85;2.88;;;16.70;94.50;;;;;;5072447;28;20472;-86
2021/08/28 09:58:06;;;;;;;4.15;2.97;;;16.70;94.70;;;;;;5083437;28;20097;-84
2021/08/28 10:00:34;;;;;;;8.52;3.60;;;16.60;94.90;;;;;;5078918;28;20078;-83
2021/08/28 10:03:05;;;;;;;5.53;3.03;;;16.70;95.20;;;;;;5088716;28;20016;-85
2021/08/28 10:05:36;;;;;;;5.03;3.33;;;16.70;94.80;;;;;;5079041;28;20059;-87
2021/08/28 10:08:05;;;;;;;4.97;3.55;;;16.60;95.10;;;;;;5081539;28;20029;-85
2021/08/28 10:10:33;;;;;;;5.88;3.67;;;16.70;95.20;;;;;;5087291;28;20024;-86
2021/08/28 10:13:02;;;;;;;5.47;3.38;;;16.70;95.20;;;;;;5075591;28;20024;-87
2021/08/28 10:15:31;;;;;;;4.65;3.22;;;16.80;95.20;;;;;;5086619;28;20021;-87
2021/08/28 10:17:58;;;;;;;5.25;3.20;;;16.80;95.20;;;;;;5085147;28;20097;-86
2021/08/28 10:20:26;;;;;;;5.93;3.75;;;16.80;95.50;;;;;;5100005;28;20020;-86
2021/08/28 10:22:56;;;;;;;4.85;2.90;;;16.90;95.30;;;;;;5082168;28;20353;-88
2021/08/28 10:25:25;;;;;;;4.43;3.33;;;16.90;94.70;;;;;;5090621;28;20035;-87
2021/08/28 10:27:55;;;;;;;4.95;3.13;;;17.10;94.50;;;;;;5102394;28;20036;-91
2021/08/28 10:30:22;;;;;;;4.50;2.92;;;17.10;94.20;;;;;;5096190;28;20375;-88
2021/08/28 10:32:49;;;;;;;4.35;3.00;;;17.20;94.50;;;;;;5079060;28;20055;-87
2021/08/28 10:35:17;;;;;;;3.55;2.75;;;17.20;94.00;;;;;;5091103;28;20016;-88
2021/08/28 10:37:43;;;;;;;3.47;2.60;;;17.30;93.40;;;;;;5083607;28;20027;-87
2021/08/28 10:40:31;;;;;;;3.75;2.80;;;17.30;93.50;;;;;;5083377;28;20502;-87
2021/08/28 10:43:07;;;;;;;3.67;2.80;;;17.30;93.60;;;;;;5091276;28;20447;-88
2021/08/28 10:45:38;;;;;;;4.15;3.33;;;17.40;93.10;;;;;;5082524;28;20045;-88
2021/08/28 10:48:07;;;;;;;3.75;2.90;;;17.50;92.80;;;;;;5102309;28;20055;-88
2021/08/28 10:50:40;;;;;;;4.13;2.85;;;17.60;92.70;;;;;;5075876;28;20028;-87
2021/08/28 10:53:08;;;;;;;4.05;2.65;;;17.60;92.90;;;;;;5094783;28;20012;-88
2021/08/28 10:55:39;;;;;;;5.20;3.17;;;17.60;92.70;;;;;;5088796;28;20028;-88
2021/08/28 10:58:18;;;;;;;5.90;2.97;;;17.80;92.80;;;;;;5085622;28;20088;-89
2021/08/28 11:00:55;;;;;;;3.83;3.10;;;17.90;92.60;;;;;;5113102;28;20467;-90
2021/08/28 11:03:32;;;;;;;3.03;2.53;;;18.00;92.50;;;;;;5090704;28;20364;-88
2021/08/28 11:06:13;;;;;;;4.20;3.03;;;18.10;91.50;;;;;;5075115;28;20018;-89
2021/08/28 11:08:50;;;;;;;3.53;2.50;;;18.20;90.80;;;;;;5091284;28;20092;-88
2021/08/28 11:11:35;;;;;;;3.33;2.50;;;18.20;91.10;;;;;;5079372;28;20032;-87
2021/08/28 11:14:04;;;;;;;5.65;2.45;;;18.20;91.10;;;;;;5084902;28;20020;-89
2021/08/28 11:16:50;;;;;;;5.82;2.33;;;18.30;91.50;;;;;;5086303;28;20117;-89
2021/08/28 11:19:25;;;;;;;4.95;2.75;;;18.20;90.90;;;;;;5075668;28;20020;-89
2021/08/28 11:21:52;;;;;;;4.78;3.03;;;18.10;91.50;;;;;;5082662;28;20016;-90
2021/08/28 11:24:23;;;;;;;5.20;2.70;;;18.10;92.30;;;;;;5085859;28;20024;-86
2021/08/28 11:26:51;;;;;;;3.60;2.95;;;18.00;92.90;;;;;;5091729;28;20473;-86
2021/08/28 11:29:32;;;;;;;3.20;2.83;;;17.90;93.10;;;;;;5076291;28;20464;-87
2021/08/28 11:32:12;;;;;;;3.20;2.90;;;17.90;93.30;;;;;;5081648;28;20357;-86
2021/08/28 11:35:05;;;;;;;4.43;2.38;;;17.80;92.70;;;;;;5087812;28;20020;-86
2021/08/28 11:37:37;;;;;;;5.55;4.25;;;17.70;92.70;;;;;;5083471;28;20028;-89
2021/08/28 11:40:21;;;;;;;;;;;17.70;92.90;;;;;;5086127;28;20031;-87
2021/08/28 11:42:46;;;;;;;3.30;2.67;;;17.70;93.50;;;;;;5078734;28;19999;-88
2021/08/28 11:45:12;;;;;;;3.65;2.45;;;17.60;93.50;;;;;;5091120;28;20107;-88
2021/08/28 11:47:39;;;;;;;4.70;2.63;;;17.60;93.50;;;;;;5083805;28;20032;-89
2021/08/28 11:50:06;;;;;;;3.17;2.20;;;17.50;93.40;;;;;;5083510;28;20051;-90
2021/08/28 11:52:36;;;;;;;4.60;2.30;;;17.50;93.70;;;;;;5090483;28;20076;-91
2021/08/28 11:55:11;;;;;;;2.03;1.85;;;17.40;93.60;;;;;;5092512;28;20028;-89
2021/08/28 11:57:38;;;;;;;3.08;2.38;;;17.40;93.60;;;;;;5082691;28;20058;-90
2021/08/28 12:00:06;;;;;;;3.05;2.20;;;17.30;93.80;;;;;;5084831;28;20027;-90
2021/08/28 12:02:32;;;;;;;3.30;2.70;;;17.20;94.10;;;;;;5089430;28;20110;-89
2021/08/28 12:05:13;;;;;;;3.88;2.10;;;17.20;93.90;;;;;;5077936;28;20025;-91
2021/08/28 12:07:40;;;;;;;2.92;2.00;;;17.10;94.20;;;;;;5088090;28;20040;-91
2021/08/28 12:10:07;;;;;;;2.65;2.35;;;17.10;94.00;;;;;;5086641;28;20081;-91
2021/08/28 12:12:32;;;;;;;2.63;2.42;;;17.20;94.10;;;;;;5081057;28;20031;-89
2021/08/28 12:15:05;;;;;;;3.40;2.08;;;17.20;94.10;;;;;;5092132;28;20028;-87
2021/08/28 12:17:31;;;;;;;2.92;2.30;;;17.20;93.90;;;;;;5080972;28;20040;-88
2021/08/28 12:20:02;;;;;;;2.35;2.08;;;17.20;94.00;;;;;;5085123;28;20350;-88
2021/08/28 12:22:28;;;;;;;3.15;2.28;;;17.20;94.20;;;;;;5089027;28;20031;-87
2021/08/28 12:24:54;;;;;;;2.38;1.90;;;17.30;94.00;;;;;;5093103;28;20024;-87
2021/08/28 12:27:22;;;;;;;2.72;2.20;;;17.40;93.90;;;;;;5079289;28;20430;-87
2021/08/28 12:29:50;;;;;;;2.83;2.10;;;17.40;93.10;;;;;;5085630;28;20021;-87
2021/08/28 12:32:19;;;;;;;3.08;1.83;;;17.40;93.00;;;;;;5086379;28;20494;-89
2021/08/28 12:34:56;;;;;;;1.65;1.45;;;17.40;92.60;;;;;;5078326;28;20028;-87
2021/08/28 12:37:24;;;;;;;1.92;1.73;;;17.40;92.60;;;;;;5089282;28;20086;-80
2021/08/28 12:39:52;;;;;;;2.65;1.77;;;17.40;92.40;;;;;;5083196;28;20020;-82
2021/08/28 12:42:19;;;;;;;3.42;1.83;;;17.40;92.50;;;;;;5081899;28;20089;-85
2021/08/28 12:44:46;;;;;;;2.42;2.03;;;17.50;92.60;;;;;;5091882;28;20020;-87
2021/08/28 12:47:12;;;;;;;2.10;1.70;;;17.50;92.60;;;;;;5077111;28;20493;-88
2021/08/28 12:49:40;;;;;;;3.35;2.03;;;17.60;92.60;;;;;;5086748;28;20174;-88
2021/08/28 12:52:08;;;;;;;5.68;4.28;;;17.60;92.70;;;;;;5085742;28;20065;-88
2021/08/28 12:54:36;;;;;;;4.00;2.10;;;17.50;92.60;;;;;;5094381;28;20020;-88